createdAt,value
2017-10-15T00:00:26.931Z,15.00
2017-10-15T00:02:55.249Z,15.10
2017-10-15T00:05:23.558Z,15.03
2017-10-15T00:07:51.877Z,18.77
2017-10-15T00:10:20.950Z,15.00
2017-10-15T00:12:49.275Z,16.37
2017-10-15T00:15:17.591Z,16.77
2017-10-15T00:17:45.917Z,22.63
2017-10-15T00:20:14.230Z,20.83
2017-10-15T00:22:42.543Z,19.93
2017-10-15T00:25:10.858Z,20.53
2017-10-15T00:27:39.171Z,17.70
2017-10-15T00:30:07.495Z,22.70
2017-10-15T00:32:36.578Z,18.30
2017-10-15T00:35:05.675Z,17.80
2017-10-15T00:37:34.749Z,20.40
2017-10-15T00:40:03.063Z,17.20
2017-10-15T00:42:32.144Z,15.00
2017-10-15T00:45:01.226Z,16.70
2017-10-15T00:47:29.538Z,13.67
2017-10-15T00:49:57.872Z,15.40
2017-10-15T00:52:26.173Z,21.13
2017-10-15T00:54:55.263Z,16.43
2017-10-15T00:57:24.341Z,16.97
2017-10-15T00:59:52.662Z,17.67
2017-10-15T01:02:21.741Z,17.50
2017-10-15T01:04:50.067Z,17.97
2017-10-15T01:07:18.394Z,20.50
2017-10-15T01:09:47.470Z,16.00
2017-10-15T01:12:15.791Z,17.70
2017-10-15T01:14:44.144Z,19.20
2017-10-15T01:17:13.239Z,19.33
2017-10-15T01:19:41.568Z,16.07
2017-10-15T01:22:09.891Z,18.30
2017-10-15T01:24:38.971Z,18.33
2017-10-15T01:27:07.294Z,19.90
2017-10-15T01:29:35.615Z,21.83
2017-10-15T01:32:03.937Z,18.80
2017-10-15T01:34:32.245Z,20.27
2017-10-15T01:37:00.558Z,21.60
2017-10-15T01:39:28.866Z,19.97
2017-10-15T01:41:57.186Z,20.77
2017-10-15T01:44:25.489Z,22.80
2017-10-15T01:46:53.807Z,31.13
2017-10-15T01:49:22.135Z,23.87
2017-10-15T01:51:50.450Z,20.80
2017-10-15T01:54:18.769Z,30.80
2017-10-15T01:56:47.069Z,26.53
2017-10-15T01:59:15.415Z,23.93
2017-10-15T02:01:43.726Z,31.23
2017-10-15T02:04:12.058Z,25.13
2017-10-15T02:06:40.370Z,19.93
2017-10-15T02:09:08.695Z,20.53
2017-10-15T02:11:37.018Z,19.73
2017-10-15T02:14:05.365Z,19.30
2017-10-15T02:16:33.677Z,21.40
2017-10-15T02:19:01.997Z,17.80
2017-10-15T02:21:31.065Z,20.10
2017-10-15T02:23:59.382Z,20.10
2017-10-15T02:26:27.711Z,19.30
2017-10-15T02:28:56.021Z,18.53
2017-10-15T02:31:25.122Z,19.10
2017-10-15T02:33:54.214Z,19.53
2017-10-15T02:36:23.322Z,17.60
2017-10-15T02:38:51.637Z,19.43
2017-10-15T02:41:19.963Z,19.33
2017-10-15T02:43:49.034Z,18.10
2017-10-15T02:46:17.356Z,17.97
2017-10-15T02:48:45.654Z,19.80
2017-10-15T02:51:13.991Z,21.43
2017-10-15T02:53:43.073Z,18.90
2017-10-15T02:56:12.168Z,24.23
2017-10-15T02:58:41.250Z,20.90
2017-10-15T03:01:09.607Z,23.00
2017-10-15T03:03:37.911Z,20.63
2017-10-15T03:06:06.210Z,17.73
2017-10-15T03:08:35.303Z,17.77
2017-10-15T03:11:04.381Z,20.17
2017-10-15T03:13:32.709Z,18.87
2017-10-15T03:16:01.012Z,21.63
2017-10-15T03:18:29.326Z,18.30
2017-10-15T03:20:58.393Z,24.13
2017-10-15T03:23:26.717Z,20.47
2017-10-15T03:25:55.113Z,17.60
2017-10-15T03:28:23.435Z,18.27
2017-10-15T03:30:51.742Z,17.37
2017-10-15T03:33:20.822Z,17.50
2017-10-15T03:35:49.898Z,20.70
2017-10-15T03:38:18.229Z,15.17
2017-10-15T03:40:46.540Z,17.40
2017-10-15T03:43:14.884Z,18.80
2017-10-15T03:45:43.198Z,19.53
2017-10-15T03:48:11.511Z,17.03
2017-10-15T03:50:40.608Z,16.00
2017-10-15T03:53:09.679Z,16.20
2017-10-15T03:55:38.018Z,19.13
2017-10-15T03:58:06.322Z,15.77
2017-10-15T04:00:34.659Z,16.57
2017-10-15T04:03:02.982Z,17.90
2017-10-15T04:05:31.310Z,18.60
2017-10-15T04:07:59.623Z,16.43
2017-10-15T04:10:27.948Z,14.57
2017-10-15T04:12:57.017Z,16.60
2017-10-15T04:15:25.343Z,15.00
2017-10-15T04:17:53.654Z,15.30
2017-10-15T04:20:21.979Z,15.47
2017-10-15T04:22:51.095Z,13.50
2017-10-15T04:25:19.430Z,12.13
2017-10-15T04:27:47.742Z,11.37
2017-10-15T04:30:16.043Z,10.00
2017-10-15T04:32:44.373Z,12.70
2017-10-15T04:35:13.454Z,9.33
2017-10-15T04:37:41.776Z,10.27
2017-10-15T04:40:10.087Z,10.10
2017-10-15T04:42:38.405Z,11.27
2017-10-15T04:45:07.483Z,11.53
2017-10-15T04:47:35.802Z,12.73
2017-10-15T04:50:04.110Z,12.93
2017-10-15T04:52:32.429Z,10.80
2017-10-15T04:55:01.512Z,11.50
2017-10-15T04:57:29.839Z,10.53
2017-10-15T04:59:58.142Z,12.43
2017-10-15T05:02:26.471Z,13.87
2017-10-15T05:04:55.542Z,16.43
2017-10-15T05:07:23.866Z,17.07
2017-10-15T05:09:52.178Z,15.77
2017-10-15T05:12:20.534Z,18.87
2017-10-15T05:14:48.845Z,18.50
2017-10-15T05:17:17.855Z,19.77
2017-10-15T05:19:46.951Z,21.10
2017-10-15T05:22:16.034Z,16.57
2017-10-15T05:24:44.354Z,16.03
2017-10-15T05:27:12.658Z,14.90
2017-10-15T05:29:40.975Z,15.60
2017-10-15T05:32:10.052Z,19.77
2017-10-15T05:34:38.379Z,19.07
2017-10-15T05:37:06.682Z,22.23
2017-10-15T05:39:35.016Z,28.33
2017-10-15T05:42:04.099Z,19.50
2017-10-15T05:44:33.188Z,18.70
2017-10-15T05:47:01.501Z,19.90
2017-10-15T05:49:29.817Z,21.67
2017-10-15T05:51:58.140Z,19.53
2017-10-15T05:54:27.260Z,19.50
2017-10-15T05:56:55.562Z,15.80
2017-10-15T05:59:23.906Z,16.90
2017-10-15T06:01:52.219Z,18.57
2017-10-15T06:04:20.567Z,15.83
2017-10-15T06:06:48.886Z,16.57
2017-10-15T06:09:17.194Z,14.40
2017-10-15T06:11:46.289Z,15.40
2017-10-15T06:14:15.372Z,14.20
2017-10-15T06:16:43.702Z,18.03
2017-10-15T06:19:12.009Z,17.73
2017-10-15T06:21:40.335Z,18.47
2017-10-15T06:24:08.641Z,24.80
2017-10-15T06:26:36.970Z,20.60
2017-10-15T06:29:06.051Z,18.27
2017-10-15T06:31:34.365Z,18.50
2017-10-15T06:34:02.673Z,18.60
2017-10-15T06:36:31.002Z,18.43
2017-10-15T06:39:00.073Z,18.37
2017-10-15T06:41:28.398Z,20.43
2017-10-15T06:43:56.709Z,15.63
2017-10-15T06:46:25.019Z,17.23
2017-10-15T06:48:54.105Z,17.17
2017-10-15T06:51:22.410Z,19.57
2017-10-15T06:53:50.734Z,16.23
2017-10-15T06:56:19.045Z,15.93
2017-10-15T06:58:48.142Z,14.17
2017-10-15T07:01:17.219Z,14.00
2017-10-15T07:03:45.551Z,17.80
2017-10-15T07:06:13.861Z,15.50
2017-10-15T07:08:42.174Z,18.10
2017-10-15T07:11:11.245Z,17.13
2017-10-15T07:13:39.582Z,15.80
2017-10-15T07:16:07.883Z,16.87
2017-10-15T07:18:36.210Z,16.63
2017-10-15T07:21:05.289Z,16.90
2017-10-15T07:23:34.385Z,20.43
2017-10-15T07:26:02.704Z,15.90
2017-10-15T07:28:31.783Z,14.47
2017-10-15T07:31:00.121Z,17.83
2017-10-15T07:33:28.438Z,15.83
2017-10-15T07:35:56.765Z,15.27
2017-10-15T07:38:25.831Z,14.60
2017-10-15T07:40:54.170Z,14.03
2017-10-15T07:43:22.474Z,15.60
2017-10-15T07:45:50.797Z,14.40
2017-10-15T07:48:19.114Z,17.00
2017-10-15T07:50:47.430Z,15.50
2017-10-15T07:53:16.422Z,16.13
2017-10-15T07:55:44.747Z,16.43
2017-10-15T07:58:13.048Z,15.70
2017-10-15T08:00:42.137Z,15.87
2017-10-15T08:03:10.450Z,14.10
2017-10-15T08:05:38.779Z,15.70
2017-10-15T08:08:07.091Z,17.57
2017-10-15T08:10:35.400Z,50.33
2017-10-15T08:13:04.494Z,13.43
2017-10-15T08:15:33.575Z,13.80
2017-10-15T08:18:02.666Z,15.37
2017-10-15T08:20:30.981Z,14.43
2017-10-15T08:22:59.307Z,13.23
2017-10-15T08:25:27.634Z,11.27
2017-10-15T08:27:55.949Z,13.07
2017-10-15T08:30:24.249Z,12.53
2017-10-15T08:32:52.565Z,11.90
2017-10-15T08:35:20.873Z,11.47
2017-10-15T08:37:49.202Z,11.93
2017-10-15T08:40:18.280Z,11.23
2017-10-15T08:42:46.604Z,13.00
2017-10-15T08:45:14.906Z,11.70
2017-10-15T08:47:43.218Z,17.30
2017-10-15T08:50:12.315Z,11.63
2017-10-15T08:52:41.394Z,11.43
2017-10-15T08:55:09.714Z,13.80
2017-10-15T08:57:38.035Z,11.33
2017-10-15T09:00:07.115Z,10.23
2017-10-15T09:02:35.422Z,11.03
2017-10-15T09:05:03.750Z,10.27
2017-10-15T09:07:32.054Z,12.30
2017-10-15T09:10:00.370Z,10.43
2017-10-15T09:12:29.429Z,6.20
2017-10-15T09:14:57.747Z,6.23
2017-10-15T09:17:26.080Z,5.83
2017-10-15T09:19:54.410Z,4.63
2017-10-15T09:22:23.479Z,4.43
2017-10-15T09:24:51.785Z,4.50
2017-10-15T09:27:20.869Z,4.20
2017-10-15T09:29:49.939Z,4.70
2017-10-15T09:32:18.263Z,3.00
2017-10-15T09:34:46.571Z,4.83
2017-10-15T09:37:14.887Z,4.83
2017-10-15T09:39:43.963Z,3.00
2017-10-15T09:42:12.277Z,6.70
2017-10-15T09:44:41.346Z,2.93
2017-10-15T09:47:09.674Z,5.13
2017-10-15T09:49:37.974Z,4.03
2017-10-15T09:52:06.281Z,4.80
2017-10-15T09:54:34.595Z,6.63
2017-10-15T09:57:02.909Z,10.93
2017-10-15T09:59:31.220Z,3.83
2017-10-15T10:02:00.313Z,6.83
2017-10-15T10:04:28.613Z,6.30
2017-10-15T10:06:56.946Z,5.37
2017-10-15T10:09:25.259Z,6.00
2017-10-15T10:11:54.333Z,9.63
2017-10-15T10:14:22.642Z,7.53
2017-10-15T10:16:50.942Z,7.53
2017-10-15T10:19:19.285Z,8.33
2017-10-15T10:21:48.362Z,8.27
2017-10-15T10:24:16.679Z,9.90
2017-10-15T10:26:44.983Z,3.97
2017-10-15T10:29:13.306Z,3.77
2017-10-15T10:31:42.376Z,4.00
2017-10-15T10:34:10.698Z,4.60
2017-10-15T10:36:38.997Z,3.73
2017-10-15T10:39:07.316Z,5.80
2017-10-15T10:41:35.625Z,7.17
2017-10-15T10:44:03.951Z,5.07
2017-10-15T10:46:32.254Z,5.20
2017-10-15T10:49:00.577Z,4.57
2017-10-15T10:51:28.881Z,4.10
2017-10-15T10:53:57.193Z,5.30
2017-10-15T10:56:26.258Z,3.20
2017-10-15T10:58:54.569Z,8.43
2017-10-15T11:01:23.644Z,5.83
2017-10-15T11:03:51.967Z,4.80
2017-10-15T11:06:20.267Z,5.20
2017-10-15T11:08:48.569Z,5.87
2017-10-15T11:11:16.882Z,6.70
2017-10-15T11:13:45.186Z,15.27
2017-10-15T11:16:14.277Z,9.13
2017-10-15T11:18:43.354Z,5.00
2017-10-15T11:21:11.675Z,5.00
2017-10-15T11:23:39.988Z,9.20
2017-10-15T11:26:08.310Z,3.77
2017-10-15T11:28:37.373Z,3.30
2017-10-15T11:31:05.690Z,3.43
2017-10-15T11:33:33.994Z,3.77
2017-10-15T11:36:02.301Z,2.00
2017-10-15T11:38:30.615Z,3.60
2017-10-15T11:40:59.685Z,4.30
2017-10-15T11:43:27.986Z,3.03
2017-10-15T11:45:57.055Z,4.30
2017-10-15T11:48:25.382Z,4.20
2017-10-15T11:50:53.695Z,5.50
2017-10-15T11:53:22.027Z,8.83
2017-10-15T11:55:50.339Z,3.77
2017-10-15T11:58:19.421Z,4.73
2017-10-15T12:00:47.727Z,3.10
2017-10-15T12:03:16.045Z,1.80
2017-10-15T12:05:44.356Z,2.33
2017-10-15T12:08:12.665Z,2.10
2017-10-15T12:10:40.972Z,2.93
2017-10-15T12:13:09.294Z,1.20
2017-10-15T12:15:37.594Z,5.33
2017-10-15T12:18:05.926Z,2.50
2017-10-15T12:20:34.236Z,7.90
2017-10-15T12:23:02.557Z,6.30
2017-10-15T12:25:30.882Z,2.40
2017-10-15T12:27:59.186Z,1.70
2017-10-15T12:30:27.497Z,2.03
2017-10-15T12:32:55.809Z,2.70
2017-10-15T12:35:24.114Z,2.90
2017-10-15T12:37:52.418Z,1.73
2017-10-15T12:40:20.741Z,1.60
2017-10-15T12:42:49.056Z,3.63
2017-10-15T12:45:17.478Z,1.83
2017-10-15T12:47:45.778Z,9.53
2017-10-15T12:50:14.097Z,5.00
2017-10-15T12:52:43.161Z,3.10
2017-10-15T12:55:11.486Z,10.90
2017-10-15T12:57:39.782Z,2.90
2017-10-15T13:00:08.094Z,2.17
2017-10-15T13:02:36.394Z,3.67
2017-10-15T13:05:04.711Z,2.13
2017-10-15T13:07:33.009Z,2.03
2017-10-15T13:10:01.315Z,4.33
2017-10-15T13:12:29.646Z,1.90
2017-10-15T13:14:57.943Z,4.50
2017-10-15T13:17:26.258Z,2.10
2017-10-15T13:19:54.563Z,3.27
2017-10-15T13:22:22.914Z,2.10
2017-10-15T13:24:51.982Z,4.97
2017-10-15T13:27:20.286Z,1.80
2017-10-15T13:29:49.354Z,1.77
2017-10-15T13:32:17.676Z,4.30
2017-10-15T13:34:46.742Z,1.90
2017-10-15T13:37:15.067Z,3.30
2017-10-15T13:39:43.374Z,4.43
2017-10-15T13:42:11.689Z,4.40
2017-10-15T13:44:40.822Z,5.10
2017-10-15T13:47:09.144Z,2.43
2017-10-15T13:49:37.449Z,3.73
2017-10-15T13:52:06.532Z,3.30
2017-10-15T13:54:35.598Z,1.63
2017-10-15T13:57:03.922Z,1.87
2017-10-15T13:59:32.227Z,4.37
2017-10-15T14:02:00.542Z,2.23
2017-10-15T14:04:28.847Z,2.07
2017-10-15T14:06:57.918Z,1.77
2017-10-15T14:09:26.245Z,2.90
2017-10-15T14:11:54.545Z,7.03
2017-10-15T14:14:22.851Z,2.10
2017-10-15T14:16:51.150Z,5.47
2017-10-15T14:19:20.226Z,5.90
2017-10-15T14:21:48.532Z,1.90
2017-10-15T14:24:16.851Z,3.87
2017-10-15T14:26:45.163Z,2.93
2017-10-15T14:29:14.251Z,7.10
2017-10-15T14:31:42.548Z,2.07
2017-10-15T14:34:11.621Z,2.10
2017-10-15T14:36:39.920Z,1.90
2017-10-15T14:39:08.998Z,2.40
2017-10-15T14:41:37.306Z,2.57
2017-10-15T14:44:05.620Z,4.67
2017-10-15T14:46:33.945Z,2.40
2017-10-15T14:49:03.023Z,1.97
2017-10-15T14:51:31.349Z,5.13
2017-10-15T14:53:59.654Z,1.93
2017-10-15T14:56:27.966Z,4.23
2017-10-15T14:58:57.035Z,1.83
2017-10-15T15:01:25.357Z,4.37
2017-10-15T15:03:53.666Z,1.93
2017-10-15T15:06:21.974Z,3.20
2017-10-15T15:08:50.274Z,3.33
2017-10-15T15:11:19.354Z,8.23
2017-10-15T15:13:47.661Z,4.03
2017-10-15T15:16:15.976Z,2.33
2017-10-15T15:18:44.278Z,1.70
2017-10-15T15:21:12.627Z,3.17
2017-10-15T15:23:40.934Z,7.90
2017-10-15T15:26:09.247Z,5.83
2017-10-15T15:28:37.578Z,3.00
2017-10-15T15:31:05.895Z,2.80
2017-10-15T15:33:34.987Z,2.93
2017-10-15T15:36:04.071Z,3.20
2017-10-15T15:38:33.145Z,3.07
2017-10-15T15:41:01.442Z,5.50
2017-10-15T15:43:29.762Z,8.07
2017-10-15T15:45:58.061Z,5.13
2017-10-15T15:48:27.198Z,2.17
2017-10-15T15:50:56.277Z,3.43
2017-10-15T15:53:24.594Z,3.57
2017-10-15T15:55:52.890Z,2.80
2017-10-15T15:58:21.198Z,2.60
2017-10-15T16:00:49.494Z,4.60
2017-10-15T16:03:17.810Z,2.10
2017-10-15T16:05:46.125Z,3.90
2017-10-15T16:08:14.444Z,4.77
2017-10-15T16:10:43.525Z,2.40
2017-10-15T16:13:12.598Z,2.73
2017-10-15T16:15:40.932Z,2.80
2017-10-15T16:18:09.237Z,5.33
2017-10-15T16:20:37.554Z,3.20
2017-10-15T16:23:05.913Z,3.40
2017-10-15T16:25:34.231Z,3.03
2017-10-15T16:28:02.522Z,2.40
2017-10-15T16:30:30.826Z,9.97
2017-10-15T16:32:59.134Z,3.37
2017-10-15T16:35:27.457Z,3.53
2017-10-15T16:37:55.753Z,6.33
2017-10-15T16:40:24.066Z,4.30
2017-10-15T16:42:52.369Z,3.50
2017-10-15T16:45:20.677Z,3.83
2017-10-15T16:47:48.976Z,3.60
2017-10-15T16:50:17.318Z,5.70
2017-10-15T16:52:45.628Z,3.90
2017-10-15T16:55:13.953Z,4.97
2017-10-15T16:57:42.274Z,5.73
2017-10-15T17:00:10.587Z,3.63
2017-10-15T17:02:39.683Z,5.70
2017-10-15T17:05:08.752Z,3.73
2017-10-15T17:07:37.076Z,4.73
2017-10-15T17:10:05.387Z,6.00
2017-10-15T17:12:33.693Z,5.30
2017-10-15T17:15:02.006Z,5.90
2017-10-15T17:17:30.320Z,3.37
2017-10-15T17:19:58.623Z,3.90
2017-10-15T17:22:26.960Z,4.50
2017-10-15T17:24:55.262Z,4.53
2017-10-15T17:27:23.589Z,6.13
2017-10-15T17:29:52.718Z,8.50
2017-10-15T17:32:21.792Z,7.37
2017-10-15T17:34:50.116Z,7.87
2017-10-15T17:37:18.422Z,10.53
2017-10-15T17:39:46.762Z,5.50
2017-10-15T17:42:15.863Z,8.07
2017-10-15T17:44:44.196Z,5.70
2017-10-15T17:47:12.505Z,13.47
2017-10-15T17:49:59.502Z,5.67
2017-10-15T17:52:27.806Z,8.63
2017-10-15T17:54:56.915Z,6.93
2017-10-15T17:57:25.225Z,7.90
2017-10-15T17:59:53.538Z,8.83
2017-10-15T18:02:29.151Z,9.53
2017-10-15T18:04:57.479Z,9.70
2017-10-15T18:07:26.553Z,8.33
2017-10-15T18:09:54.861Z,8.43
2017-10-15T18:12:23.161Z,8.43
2017-10-15T18:14:51.483Z,7.50
2017-10-15T18:17:19.790Z,10.70
2017-10-15T18:19:48.110Z,7.33
2017-10-15T18:22:17.182Z,7.73
2017-10-15T18:24:45.494Z,7.33
2017-10-15T18:27:13.810Z,11.23
2017-10-15T18:29:42.894Z,8.67
2017-10-15T18:32:11.970Z,9.10
2017-10-15T18:34:40.287Z,9.03
2017-10-15T18:37:08.597Z,10.60
2017-10-15T18:39:36.918Z,11.00
2017-10-15T18:42:05.235Z,8.37
2017-10-15T18:44:33.551Z,9.67
2017-10-15T18:47:01.863Z,15.73
2017-10-15T18:49:30.949Z,12.10
2017-10-15T18:52:00.039Z,11.30
2017-10-15T18:54:28.345Z,13.20
2017-10-15T18:56:56.662Z,10.30
2017-10-15T18:59:24.962Z,9.23
2017-10-15T19:01:53.592Z,10.70
2017-10-15T19:04:21.899Z,9.67
2017-10-15T19:06:50.234Z,16.13
2017-10-15T19:09:18.546Z,8.63
2017-10-15T19:11:46.860Z,10.47
2017-10-15T19:14:15.194Z,8.17
2017-10-15T19:16:43.509Z,8.30
2017-10-15T19:19:11.823Z,7.63
2017-10-15T19:21:40.149Z,10.60
2017-10-15T19:24:08.487Z,7.27
2017-10-15T19:26:36.805Z,9.20
2017-10-15T19:29:05.122Z,8.53
2017-10-15T19:31:34.243Z,8.40
2017-10-15T19:34:02.537Z,8.90
2017-10-15T19:36:30.869Z,9.40
2017-10-15T19:38:59.939Z,8.47
2017-10-15T19:41:28.277Z,15.60
2017-10-15T19:43:56.568Z,9.83
2017-10-15T19:46:24.898Z,12.70
2017-10-15T19:48:54.011Z,11.50
2017-10-15T19:51:22.356Z,12.17
2017-10-15T19:53:50.689Z,14.03
2017-10-15T19:56:19.014Z,18.37
2017-10-15T19:58:48.107Z,16.07
2017-10-15T20:01:17.185Z,15.20
2017-10-15T20:03:45.499Z,11.80
2017-10-15T20:06:14.572Z,10.83
2017-10-15T20:08:42.889Z,14.23
2017-10-15T20:11:11.193Z,11.63
2017-10-15T20:13:39.511Z,12.93
2017-10-15T20:16:08.616Z,10.50
2017-10-15T20:18:37.716Z,14.73
2017-10-15T20:21:06.791Z,13.50
2017-10-15T20:23:36.622Z,17.33
2017-10-15T20:26:05.717Z,13.50
2017-10-15T20:28:34.790Z,15.80
2017-10-15T20:31:03.118Z,15.17
2017-10-15T20:33:31.426Z,15.73
2017-10-15T20:35:59.755Z,20.17
2017-10-15T20:38:28.066Z,15.80
2017-10-15T20:40:56.390Z,15.07
2017-10-15T20:43:25.473Z,15.57
2017-10-15T20:45:53.806Z,17.10
2017-10-15T20:48:22.128Z,16.37
2017-10-15T20:50:50.458Z,16.43
2017-10-15T20:53:18.770Z,16.23
2017-10-15T20:55:47.096Z,21.50
2017-10-15T20:58:15.406Z,15.00
2017-10-15T21:00:43.724Z,16.73
2017-10-15T21:03:12.040Z,13.50
2017-10-15T21:05:40.414Z,18.50
2017-10-15T21:08:08.718Z,28.10
2017-10-15T21:10:37.018Z,20.40
2017-10-15T21:13:05.356Z,17.83
2017-10-15T21:15:33.679Z,15.90
2017-10-15T21:18:02.026Z,17.40
2017-10-15T21:20:30.330Z,14.77
2017-10-15T21:22:58.663Z,16.30
2017-10-15T21:25:26.967Z,24.97
2017-10-15T21:27:55.286Z,19.37
2017-10-15T21:30:24.354Z,16.93
2017-10-15T21:32:52.678Z,17.30
2017-10-15T21:35:20.991Z,14.83
2017-10-15T21:37:49.314Z,18.27
2017-10-15T21:40:18.396Z,19.50
2017-10-15T21:42:47.495Z,17.60
2017-10-15T21:45:16.575Z,18.00
2017-10-15T21:47:44.899Z,18.63
2017-10-15T21:50:13.224Z,17.63
2017-10-15T21:52:41.548Z,18.37
2017-10-15T21:55:09.866Z,27.03
2017-10-15T21:57:38.176Z,20.00
2017-10-15T22:00:07.296Z,33.03
2017-10-15T22:02:35.606Z,17.50
2017-10-15T22:05:04.715Z,19.73
2017-10-15T22:07:33.027Z,17.43
2017-10-15T22:10:01.370Z,18.80
2017-10-15T22:12:29.674Z,21.53
2017-10-15T22:14:57.993Z,17.57
2017-10-15T22:17:26.303Z,20.53
2017-10-15T22:19:54.618Z,18.53
2017-10-15T22:22:25.572Z,19.57
2017-10-15T22:24:53.885Z,23.10
2017-10-15T22:27:22.962Z,21.23
2017-10-15T22:29:51.261Z,18.90
2017-10-15T22:32:20.352Z,21.53
2017-10-15T22:34:49.431Z,22.57
2017-10-15T22:37:17.755Z,27.03
2017-10-15T22:39:46.064Z,20.40
2017-10-15T22:42:14.391Z,23.50
2017-10-15T22:44:42.719Z,20.67
2017-10-15T22:47:11.038Z,20.43
2017-10-15T22:49:40.105Z,23.23
2017-10-15T22:52:08.439Z,19.27
2017-10-15T22:54:36.747Z,16.63
2017-10-15T22:57:05.094Z,20.00
2017-10-15T22:59:33.411Z,18.47
2017-10-15T23:02:01.733Z,23.23
2017-10-15T23:04:30.042Z,19.07
2017-10-15T23:06:59.283Z,19.03
2017-10-15T23:09:28.367Z,21.83
2017-10-15T23:11:57.465Z,19.10
2017-10-15T23:14:25.823Z,19.97
2017-10-15T23:16:54.135Z,17.33
2017-10-15T23:19:23.217Z,16.13
2017-10-15T23:21:51.535Z,18.53
2017-10-15T23:24:19.871Z,16.50
2017-10-15T23:26:48.196Z,16.60
2017-10-15T23:29:16.527Z,16.27
2017-10-15T23:31:44.847Z,19.17
2017-10-15T23:34:13.167Z,16.60
2017-10-15T23:36:41.479Z,15.00
2017-10-15T23:39:10.570Z,15.53
2017-10-15T23:41:39.649Z,14.47
2017-10-15T23:44:07.976Z,15.20
2017-10-15T23:46:36.290Z,14.73
2017-10-15T23:49:04.610Z,19.37
2017-10-15T23:51:32.931Z,13.90
2017-10-15T23:54:01.242Z,14.50
2017-10-15T23:56:29.602Z,16.53
2017-10-15T23:58:57.973Z,16.37
